sensor_id;sensor_type;location;lat;lon;timestamp;temperature;humidity
5278;DHT22;2662;51.194;6.614;2023-04-03T00:00:36;3.70;99.90
5278;DHT22;2662;51.194;6.614;2023-04-03T00:03:03;3.70;99.90
5278;DHT22;2662;51.194;6.614;2023-04-03T00:05:30;3.70;99.90
5278;DHT22;2662;51.194;6.614;2023-04-03T00:07:57;3.60;99.90
5278;DHT22;2662;51.194;6.614;2023-04-03T00:10:25;3.70;99.90
5278;DHT22;2662;51.194;6.614;2023-04-03T00:12:52;3.60;99.90
5278;DHT22;2662;51.194;6.614;2023-04-03T00:15:19;3.60;99.90
5278;DHT22;2662;51.194;6.614;2023-04-03T00:17:45;3.50;99.90
5278;DHT22;2662;51.194;6.614;2023-04-03T00:20:12;3.50;99.90
5278;DHT22;2662;51.194;6.614;2023-04-03T00:22:39;3.50;99.90
5278;DHT22;2662;51.194;6.614;2023-04-03T00:25:07;3.50;99.90
5278;DHT22;2662;51.194;6.614;2023-04-03T00:27:36;3.50;99.90
5278;DHT22;2662;51.194;6.614;2023-04-03T00:30:04;3.50;99.90
5278;DHT22;2662;51.194;6.614;2023-04-03T00:32:30;3.60;99.90
5278;DHT22;2662;51.194;6.614;2023-04-03T00:34:57;3.50;99.90
5278;DHT22;2662;51.194;6.614;2023-04-03T00:37:24;3.50;99.90
5278;DHT22;2662;51.194;6.614;2023-04-03T00:39:51;3.50;99.90
5278;DHT22;2662;51.194;6.614;2023-04-03T00:42:17;3.50;99.90
5278;DHT22;2662;51.194;6.614;2023-04-03T00:48:03;3.40;99.90
5278;DHT22;2662;51.194;6.614;2023-04-03T00:50:33;3.40;99.90
5278;DHT22;2662;51.194;6.614;2023-04-03T00:53:00;3.30;99.90
5278;DHT22;2662;51.194;6.614;2023-04-03T00:55:29;3.30;99.90
5278;DHT22;2662;51.194;6.614;2023-04-03T00:57:56;3.30;99.90
5278;DHT22;2662;51.194;6.614;2023-04-03T01:00:24;3.30;99.90
5278;DHT22;2662;51.194;6.614;2023-04-03T01:02:51;3.30;99.90
5278;DHT22;2662;51.194;6.614;2023-04-03T01:05:20;3.30;99.90
5278;DHT22;2662;51.194;6.614;2023-04-03T01:07:49;3.30;99.90
5278;DHT22;2662;51.194;6.614;2023-04-03T01:10:17;3.30;99.90
5278;DHT22;2662;51.194;6.614;2023-04-03T01:12:46;3.30;99.90
5278;DHT22;2662;51.194;6.614;2023-04-03T01:15:16;3.20;99.90
5278;DHT22;2662;51.194;6.614;2023-04-03T01:17:45;3.10;99.90
5278;DHT22;2662;51.194;6.614;2023-04-03T01:23:25;3.10;99.90
5278;DHT22;2662;51.194;6.614;2023-04-03T01:25:55;3.00;99.90
5278;DHT22;2662;51.194;6.614;2023-04-03T01:28:26;3.00;99.90
5278;DHT22;2662;51.194;6.614;2023-04-03T01:30:59;3.00;99.90
5278;DHT22;2662;51.194;6.614;2023-04-03T01:33:28;3.00;99.90
5278;DHT22;2662;51.194;6.614;2023-04-03T01:35:55;3.00;99.90
5278;DHT22;2662;51.194;6.614;2023-04-03T01:38:22;3.00;99.90
5278;DHT22;2662;51.194;6.614;2023-04-03T01:40:49;3.00;99.90
5278;DHT22;2662;51.194;6.614;2023-04-03T01:43:16;3.00;99.90
5278;DHT22;2662;51.194;6.614;2023-04-03T01:45:43;3.00;99.90
5278;DHT22;2662;51.194;6.614;2023-04-03T01:48:10;3.00;99.90
5278;DHT22;2662;51.194;6.614;2023-04-03T01:50:38;3.00;99.90
5278;DHT22;2662;51.194;6.614;2023-04-03T01:53:04;2.90;99.90
5278;DHT22;2662;51.194;6.614;2023-04-03T01:55:31;2.90;99.90
5278;DHT22;2662;51.194;6.614;2023-04-03T01:57:58;2.90;99.90
5278;DHT22;2662;51.194;6.614;2023-04-03T02:00:25;3.00;99.90
5278;DHT22;2662;51.194;6.614;2023-04-03T02:02:52;2.90;99.90
5278;DHT22;2662;51.194;6.614;2023-04-03T02:05:19;2.90;99.90
5278;DHT22;2662;51.194;6.614;2023-04-03T02:07:47;2.90;99.90
5278;DHT22;2662;51.194;6.614;2023-04-03T02:10:14;2.90;99.90
5278;DHT22;2662;51.194;6.614;2023-04-03T02:12:41;2.90;99.90
5278;DHT22;2662;51.194;6.614;2023-04-03T02:15:09;2.80;99.90
5278;DHT22;2662;51.194;6.614;2023-04-03T02:17:36;2.80;99.90
5278;DHT22;2662;51.194;6.614;2023-04-03T02:20:03;2.70;99.90
5278;DHT22;2662;51.194;6.614;2023-04-03T02:22:30;2.70;99.90
5278;DHT22;2662;51.194;6.614;2023-04-03T02:24:58;2.60;99.90
5278;DHT22;2662;51.194;6.614;2023-04-03T02:27:25;2.60;99.90
5278;DHT22;2662;51.194;6.614;2023-04-03T02:29:51;2.60;99.90
5278;DHT22;2662;51.194;6.614;2023-04-03T02:32:18;2.60;99.90
5278;DHT22;2662;51.194;6.614;2023-04-03T02:34:45;2.60;99.90
5278;DHT22;2662;51.194;6.614;2023-04-03T02:37:12;2.60;99.90
5278;DHT22;2662;51.194;6.614;2023-04-03T02:39:38;2.60;99.90
5278;DHT22;2662;51.194;6.614;2023-04-03T02:42:06;2.60;99.90
5278;DHT22;2662;51.194;6.614;2023-04-03T02:44:33;2.70;99.90
5278;DHT22;2662;51.194;6.614;2023-04-03T02:47:01;2.70;99.90
5278;DHT22;2662;51.194;6.614;2023-04-03T02:49:28;2.60;99.90
5278;DHT22;2662;51.194;6.614;2023-04-03T02:51:55;2.50;99.90
5278;DHT22;2662;51.194;6.614;2023-04-03T02:54:21;2.40;99.90
5278;DHT22;2662;51.194;6.614;2023-04-03T02:56:48;2.30;99.90
5278;DHT22;2662;51.194;6.614;2023-04-03T02:59:17;2.30;99.90
5278;DHT22;2662;51.194;6.614;2023-04-03T03:01:43;2.20;99.90
5278;DHT22;2662;51.194;6.614;2023-04-03T03:04:10;2.20;99.90
5278;DHT22;2662;51.194;6.614;2023-04-03T03:06:37;2.20;99.90
5278;DHT22;2662;51.194;6.614;2023-04-03T03:09:04;2.30;99.90
5278;DHT22;2662;51.194;6.614;2023-04-03T03:11:31;2.20;99.90
5278;DHT22;2662;51.194;6.614;2023-04-03T03:13:58;2.20;99.90
5278;DHT22;2662;51.194;6.614;2023-04-03T03:16:26;2.20;99.90
5278;DHT22;2662;51.194;6.614;2023-04-03T03:18:53;2.20;99.90
5278;DHT22;2662;51.194;6.614;2023-04-03T03:21:19;2.20;99.90
5278;DHT22;2662;51.194;6.614;2023-04-03T03:23:46;2.10;99.90
5278;DHT22;2662;51.194;6.614;2023-04-03T03:26:13;2.10;99.90
5278;DHT22;2662;51.194;6.614;2023-04-03T03:28:40;2.00;99.90
5278;DHT22;2662;51.194;6.614;2023-04-03T03:31:08;2.00;99.90
5278;DHT22;2662;51.194;6.614;2023-04-03T03:33:36;2.00;99.90
5278;DHT22;2662;51.194;6.614;2023-04-03T03:36:04;2.00;99.90
5278;DHT22;2662;51.194;6.614;2023-04-03T03:38:30;2.00;99.90
5278;DHT22;2662;51.194;6.614;2023-04-03T03:40:57;2.00;99.90
5278;DHT22;2662;51.194;6.614;2023-04-03T03:43:24;2.00;99.90
5278;DHT22;2662;51.194;6.614;2023-04-03T03:45:51;1.90;99.90
5278;DHT22;2662;51.194;6.614;2023-04-03T03:48:18;2.00;99.90
5278;DHT22;2662;51.194;6.614;2023-04-03T03:50:47;1.90;99.90
5278;DHT22;2662;51.194;6.614;2023-04-03T03:53:14;1.90;99.90
5278;DHT22;2662;51.194;6.614;2023-04-03T03:55:41;1.90;99.90
5278;DHT22;2662;51.194;6.614;2023-04-03T03:58:08;1.90;99.90
5278;DHT22;2662;51.194;6.614;2023-04-03T04:00:35;2.00;99.90
5278;DHT22;2662;51.194;6.614;2023-04-03T04:03:02;1.90;99.90
5278;DHT22;2662;51.194;6.614;2023-04-03T04:05:28;1.90;99.90
5278;DHT22;2662;51.194;6.614;2023-04-03T04:07:57;1.90;99.90
5278;DHT22;2662;51.194;6.614;2023-04-03T04:10:24;1.90;99.90
5278;DHT22;2662;51.194;6.614;2023-04-03T04:12:50;1.90;99.90
5278;DHT22;2662;51.194;6.614;2023-04-03T04:15:17;2.00;99.90
5278;DHT22;2662;51.194;6.614;2023-04-03T04:17:44;2.00;99.90
5278;DHT22;2662;51.194;6.614;2023-04-03T04:20:11;1.90;99.90
5278;DHT22;2662;51.194;6.614;2023-04-03T04:22:38;2.00;99.90
5278;DHT22;2662;51.194;6.614;2023-04-03T04:25:07;2.00;99.90
5278;DHT22;2662;51.194;6.614;2023-04-03T04:27:34;2.00;99.90
5278;DHT22;2662;51.194;6.614;2023-04-03T04:30:01;2.00;99.90
5278;DHT22;2662;51.194;6.614;2023-04-03T04:32:28;1.90;99.90
5278;DHT22;2662;51.194;6.614;2023-04-03T04:34:54;2.00;99.90
5278;DHT22;2662;51.194;6.614;2023-04-03T04:37:21;1.90;99.90
5278;DHT22;2662;51.194;6.614;2023-04-03T04:39:48;2.00;99.90
5278;DHT22;2662;51.194;6.614;2023-04-03T04:42:16;1.90;99.90
5278;DHT22;2662;51.194;6.614;2023-04-03T04:44:43;1.90;99.90
5278;DHT22;2662;51.194;6.614;2023-04-03T04:47:10;1.90;99.90
5278;DHT22;2662;51.194;6.614;2023-04-03T04:49:36;1.90;99.90
5278;DHT22;2662;51.194;6.614;2023-04-03T04:52:03;1.80;99.90
5278;DHT22;2662;51.194;6.614;2023-04-03T04:54:30;1.80;99.90
5278;DHT22;2662;51.194;6.614;2023-04-03T04:56:57;1.80;99.90
5278;DHT22;2662;51.194;6.614;2023-04-03T04:59:25;1.70;99.90
5278;DHT22;2662;51.194;6.614;2023-04-03T05:01:52;1.70;99.90
5278;DHT22;2662;51.194;6.614;2023-04-03T05:04:18;1.60;99.90
5278;DHT22;2662;51.194;6.614;2023-04-03T05:06:45;1.60;99.90
5278;DHT22;2662;51.194;6.614;2023-04-03T05:09:12;1.60;99.90
5278;DHT22;2662;51.194;6.614;2023-04-03T05:11:38;1.60;99.90
5278;DHT22;2662;51.194;6.614;2023-04-03T05:14:05;1.60;99.90
5278;DHT22;2662;51.194;6.614;2023-04-03T05:16:34;1.50;99.90
5278;DHT22;2662;51.194;6.614;2023-04-03T05:19:01;1.50;99.90
5278;DHT22;2662;51.194;6.614;2023-04-03T05:21:28;1.50;99.90
5278;DHT22;2662;51.194;6.614;2023-04-03T05:23:58;1.50;99.90
5278;DHT22;2662;51.194;6.614;2023-04-03T05:26:28;1.60;99.90
5278;DHT22;2662;51.194;6.614;2023-04-03T05:28:54;1.60;99.90
5278;DHT22;2662;51.194;6.614;2023-04-03T05:31:21;1.60;99.90
5278;DHT22;2662;51.194;6.614;2023-04-03T05:33:49;1.60;99.90
5278;DHT22;2662;51.194;6.614;2023-04-03T05:36:16;1.70;99.90
5278;DHT22;2662;51.194;6.614;2023-04-03T05:38:43;1.70;99.90
5278;DHT22;2662;51.194;6.614;2023-04-03T05:41:09;1.80;99.90
5278;DHT22;2662;51.194;6.614;2023-04-03T05:43:36;1.80;99.90
5278;DHT22;2662;51.194;6.614;2023-04-03T05:46:08;1.70;99.90
5278;DHT22;2662;51.194;6.614;2023-04-03T05:48:35;1.70;99.90
5278;DHT22;2662;51.194;6.614;2023-04-03T05:51:04;1.80;99.90
5278;DHT22;2662;51.194;6.614;2023-04-03T05:53:33;1.80;99.90
5278;DHT22;2662;51.194;6.614;2023-04-03T05:56:00;1.90;99.90
5278;DHT22;2662;51.194;6.614;2023-04-03T05:58:27;2.00;99.90
5278;DHT22;2662;51.194;6.614;2023-04-03T06:00:54;2.00;99.90
5278;DHT22;2662;51.194;6.614;2023-04-03T06:03:21;2.00;99.90
5278;DHT22;2662;51.194;6.614;2023-04-03T06:05:47;2.00;99.90
5278;DHT22;2662;51.194;6.614;2023-04-03T06:08:16;2.10;99.90
5278;DHT22;2662;51.194;6.614;2023-04-03T06:10:42;2.30;99.90
5278;DHT22;2662;51.194;6.614;2023-04-03T06:13:09;2.50;99.90
5278;DHT22;2662;51.194;6.614;2023-04-03T06:15:36;3.90;99.90
5278;DHT22;2662;51.194;6.614;2023-04-03T06:18:03;5.40;99.90
5278;DHT22;2662;51.194;6.614;2023-04-03T06:20:30;7.00;99.90
5278;DHT22;2662;51.194;6.614;2023-04-03T06:22:57;7.90;99.90
5278;DHT22;2662;51.194;6.614;2023-04-03T06:25:25;8.40;99.90
5278;DHT22;2662;51.194;6.614;2023-04-03T06:27:52;9.00;99.90
5278;DHT22;2662;51.194;6.614;2023-04-03T06:30:20;9.10;99.90
5278;DHT22;2662;51.194;6.614;2023-04-03T06:32:47;10.30;99.90
5278;DHT22;2662;51.194;6.614;2023-04-03T06:35:14;11.80;99.90
5278;DHT22;2662;51.194;6.614;2023-04-03T06:37:41;12.20;99.90
5278;DHT22;2662;51.194;6.614;2023-04-03T06:40:15;12.30;99.90
5278;DHT22;2662;51.194;6.614;2023-04-03T06:42:45;12.20;99.90
5278;DHT22;2662;51.194;6.614;2023-04-03T06:45:12;11.80;99.90
5278;DHT22;2662;51.194;6.614;2023-04-03T06:47:39;12.60;99.90
5278;DHT22;2662;51.194;6.614;2023-04-03T06:50:06;12.70;99.90
5278;DHT22;2662;51.194;6.614;2023-04-03T06:52:34;12.90;99.90
5278;DHT22;2662;51.194;6.614;2023-04-03T06:55:01;12.90;99.30
5278;DHT22;2662;51.194;6.614;2023-04-03T06:57:28;12.50;99.90
5278;DHT22;2662;51.194;6.614;2023-04-03T06:59:56;12.20;99.90
5278;DHT22;2662;51.194;6.614;2023-04-03T07:02:23;11.50;99.90
5278;DHT22;2662;51.194;6.614;2023-04-03T07:04:50;11.20;99.90
5278;DHT22;2662;51.194;6.614;2023-04-03T07:07:16;11.60;99.90
5278;DHT22;2662;51.194;6.614;2023-04-03T07:09:43;11.70;99.90
5278;DHT22;2662;51.194;6.614;2023-04-03T07:12:12;12.20;99.90
5278;DHT22;2662;51.194;6.614;2023-04-03T07:14:39;11.80;99.60
5278;DHT22;2662;51.194;6.614;2023-04-03T07:17:07;11.70;99.90
5278;DHT22;2662;51.194;6.614;2023-04-03T07:19:33;11.60;99.90
5278;DHT22;2662;51.194;6.614;2023-04-03T07:22:00;12.30;99.90
5278;DHT22;2662;51.194;6.614;2023-04-03T07:24:27;11.80;99.60
5278;DHT22;2662;51.194;6.614;2023-04-03T07:26:54;12.40;99.90
5278;DHT22;2662;51.194;6.614;2023-04-03T07:29:21;12.30;99.00
5278;DHT22;2662;51.194;6.614;2023-04-03T07:31:47;12.30;98.40
5278;DHT22;2662;51.194;6.614;2023-04-03T07:34:16;11.00;99.90
5278;DHT22;2662;51.194;6.614;2023-04-03T07:36:42;10.70;99.90
5278;DHT22;2662;51.194;6.614;2023-04-03T07:39:09;10.40;99.90
5278;DHT22;2662;51.194;6.614;2023-04-03T07:41:36;10.40;99.90
5278;DHT22;2662;51.194;6.614;2023-04-03T07:44:03;10.10;99.90
5278;DHT22;2662;51.194;6.614;2023-04-03T07:46:31;9.30;99.90
5278;DHT22;2662;51.194;6.614;2023-04-03T07:48:57;9.20;99.90
5278;DHT22;2662;51.194;6.614;2023-04-03T07:51:26;8.90;99.90
5278;DHT22;2662;51.194;6.614;2023-04-03T07:53:54;9.20;99.90
5278;DHT22;2662;51.194;6.614;2023-04-03T07:56:21;8.50;99.90
5278;DHT22;2662;51.194;6.614;2023-04-03T07:58:48;9.10;99.90
5278;DHT22;2662;51.194;6.614;2023-04-03T08:01:15;9.30;99.90
5278;DHT22;2662;51.194;6.614;2023-04-03T08:03:41;9.30;99.90
5278;DHT22;2662;51.194;6.614;2023-04-03T08:06:09;9.60;99.90
5278;DHT22;2662;51.194;6.614;2023-04-03T08:08:37;10.20;99.90
5278;DHT22;2662;51.194;6.614;2023-04-03T08:11:04;11.10;99.90
5278;DHT22;2662;51.194;6.614;2023-04-03T08:13:32;12.20;99.00
5278;DHT22;2662;51.194;6.614;2023-04-03T08:16:08;13.20;95.80
5278;DHT22;2662;51.194;6.614;2023-04-03T08:18:34;13.10;92.80
5278;DHT22;2662;51.194;6.614;2023-04-03T08:21:05;12.90;91.80
5278;DHT22;2662;51.194;6.614;2023-04-03T08:23:32;12.90;92.80
5278;DHT22;2662;51.194;6.614;2023-04-03T08:26:06;13.10;93.40
5278;DHT22;2662;51.194;6.614;2023-04-03T08:28:32;13.70;88.90
5278;DHT22;2662;51.194;6.614;2023-04-03T08:31:03;13.80;83.20
5278;DHT22;2662;51.194;6.614;2023-04-03T08:33:31;12.70;80.20
5278;DHT22;2662;51.194;6.614;2023-04-03T08:35:58;12.40;84.30
5278;DHT22;2662;51.194;6.614;2023-04-03T08:38:25;11.40;83.10
5278;DHT22;2662;51.194;6.614;2023-04-03T08:41:04;11.40;84.30
5278;DHT22;2662;51.194;6.614;2023-04-03T08:43:38;11.70;81.80
5278;DHT22;2662;51.194;6.614;2023-04-03T08:46:09;11.50;79.60
5278;DHT22;2662;51.194;6.614;2023-04-03T08:48:40;11.80;78.20
5278;DHT22;2662;51.194;6.614;2023-04-03T08:51:11;12.10;77.80
5278;DHT22;2662;51.194;6.614;2023-04-03T08:53:42;12.50;77.30
5278;DHT22;2662;51.194;6.614;2023-04-03T08:56:12;13.00;76.20
5278;DHT22;2662;51.194;6.614;2023-04-03T08:58:44;12.10;76.50
5278;DHT22;2662;51.194;6.614;2023-04-03T09:01:17;12.50;74.90
5278;DHT22;2662;51.194;6.614;2023-04-03T09:03:45;12.30;74.70
5278;DHT22;2662;51.194;6.614;2023-04-03T09:06:14;11.50;73.10
5278;DHT22;2662;51.194;6.614;2023-04-03T09:08:46;11.40;73.10
5278;DHT22;2662;51.194;6.614;2023-04-03T09:11:21;11.90;74.40
5278;DHT22;2662;51.194;6.614;2023-04-03T09:13:59;12.90;76.10
5278;DHT22;2662;51.194;6.614;2023-04-03T09:16:38;14.40;77.00
5278;DHT22;2662;51.194;6.614;2023-04-03T09:19:14;15.30;71.60
5278;DHT22;2662;51.194;6.614;2023-04-03T09:21:42;14.80;70.20
5278;DHT22;2662;51.194;6.614;2023-04-03T09:24:11;14.60;65.70
5278;DHT22;2662;51.194;6.614;2023-04-03T09:26:43;14.90;61.00
5278;DHT22;2662;51.194;6.614;2023-04-03T09:29:16;13.00;58.70
5278;DHT22;2662;51.194;6.614;2023-04-03T09:31:44;12.40;58.20
5278;DHT22;2662;51.194;6.614;2023-04-03T09:34:18;12.70;59.10
5278;DHT22;2662;51.194;6.614;2023-04-03T09:36:49;12.00;58.00
5278;DHT22;2662;51.194;6.614;2023-04-03T09:39:18;11.40;58.70
5278;DHT22;2662;51.194;6.614;2023-04-03T09:41:58;11.30;61.30
5278;DHT22;2662;51.194;6.614;2023-04-03T09:44:28;11.50;62.80
5278;DHT22;2662;51.194;6.614;2023-04-03T09:46:55;11.00;62.90
5278;DHT22;2662;51.194;6.614;2023-04-03T09:49:22;11.60;67.10
5278;DHT22;2662;51.194;6.614;2023-04-03T09:51:49;11.80;64.20
5278;DHT22;2662;51.194;6.614;2023-04-03T09:54:31;11.80;65.70
5278;DHT22;2662;51.194;6.614;2023-04-03T09:57:03;11.50;64.50
5278;DHT22;2662;51.194;6.614;2023-04-03T09:59:31;11.50;64.60
5278;DHT22;2662;51.194;6.614;2023-04-03T10:02:00;11.90;66.70
5278;DHT22;2662;51.194;6.614;2023-04-03T10:04:38;11.80;64.60
5278;DHT22;2662;51.194;6.614;2023-04-03T10:07:26;11.40;65.90
5278;DHT22;2662;51.194;6.614;2023-04-03T10:09:55;11.20;65.20
5278;DHT22;2662;51.194;6.614;2023-04-03T10:12:24;11.20;65.20
5278;DHT22;2662;51.194;6.614;2023-04-03T10:14:56;11.00;65.20
5278;DHT22;2662;51.194;6.614;2023-04-03T10:17:31;11.00;66.70
5278;DHT22;2662;51.194;6.614;2023-04-03T10:20:02;11.40;65.90
5278;DHT22;2662;51.194;6.614;2023-04-03T10:22:39;11.60;66.40
5278;DHT22;2662;51.194;6.614;2023-04-03T10:25:15;10.90;66.90
5278;DHT22;2662;51.194;6.614;2023-04-03T10:27:51;11.60;68.30
5278;DHT22;2662;51.194;6.614;2023-04-03T10:30:32;11.70;64.00
5278;DHT22;2662;51.194;6.614;2023-04-03T10:33:11;11.00;64.30
5278;DHT22;2662;51.194;6.614;2023-04-03T10:35:51;11.30;66.70
5278;DHT22;2662;51.194;6.614;2023-04-03T10:38:26;11.70;68.20
5278;DHT22;2662;51.194;6.614;2023-04-03T10:41:01;11.50;68.20
5278;DHT22;2662;51.194;6.614;2023-04-03T10:43:35;11.20;69.00
5278;DHT22;2662;51.194;6.614;2023-04-03T10:46:06;11.10;69.60
5278;DHT22;2662;51.194;6.614;2023-04-03T10:48:44;11.40;71.30
5278;DHT22;2662;51.194;6.614;2023-04-03T10:51:22;11.20;69.80
5278;DHT22;2662;51.194;6.614;2023-04-03T10:53:56;10.30;70.90
5278;DHT22;2662;51.194;6.614;2023-04-03T10:56:31;9.70;72.60
5278;DHT22;2662;51.194;6.614;2023-04-03T10:59:06;9.50;80.10
5278;DHT22;2662;51.194;6.614;2023-04-03T11:01:38;9.50;81.70
5278;DHT22;2662;51.194;6.614;2023-04-03T11:04:06;9.30;77.50
5278;DHT22;2662;51.194;6.614;2023-04-03T11:06:36;9.20;80.50
5278;DHT22;2662;51.194;6.614;2023-04-03T11:09:10;9.00;80.20
5278;DHT22;2662;51.194;6.614;2023-04-03T11:11:41;8.90;82.20
5278;DHT22;2662;51.194;6.614;2023-04-03T11:14:14;9.00;86.20
5278;DHT22;2662;51.194;6.614;2023-04-03T11:16:47;9.10;83.90
5278;DHT22;2662;51.194;6.614;2023-04-03T11:19:18;9.30;83.80
5278;DHT22;2662;51.194;6.614;2023-04-03T11:21:52;9.30;82.90
5278;DHT22;2662;51.194;6.614;2023-04-03T11:24:24;9.40;83.40
5278;DHT22;2662;51.194;6.614;2023-04-03T11:26:53;9.40;82.10
5278;DHT22;2662;51.194;6.614;2023-04-03T11:29:24;9.40;82.80
5278;DHT22;2662;51.194;6.614;2023-04-03T11:32:08;9.40;79.30
5278;DHT22;2662;51.194;6.614;2023-04-03T11:34:38;9.30;77.00
5278;DHT22;2662;51.194;6.614;2023-04-03T11:37:13;9.20;80.10
5278;DHT22;2662;51.194;6.614;2023-04-03T11:39:49;9.50;81.60
5278;DHT22;2662;51.194;6.614;2023-04-03T11:42:22;9.40;82.20
5278;DHT22;2662;51.194;6.614;2023-04-03T11:45:16;9.30;78.50
5278;DHT22;2662;51.194;6.614;2023-04-03T11:47:45;9.40;78.00
5278;DHT22;2662;51.194;6.614;2023-04-03T11:50:32;9.90;77.00
5278;DHT22;2662;51.194;6.614;2023-04-03T11:53:30;10.30;77.30
5278;DHT22;2662;51.194;6.614;2023-04-03T11:56:00;10.50;78.40
5278;DHT22;2662;51.194;6.614;2023-04-03T11:58:29;10.10;65.10
5278;DHT22;2662;51.194;6.614;2023-04-03T12:01:03;10.00;64.60
5278;DHT22;2662;51.194;6.614;2023-04-03T12:07:00;10.10;61.70
5278;DHT22;2662;51.194;6.614;2023-04-03T12:10:17;10.00;64.70
5278;DHT22;2662;51.194;6.614;2023-04-03T12:12:56;10.30;63.10
5278;DHT22;2662;51.194;6.614;2023-04-03T12:15:47;10.50;64.90
5278;DHT22;2662;51.194;6.614;2023-04-03T12:19:00;10.30;60.30
5278;DHT22;2662;51.194;6.614;2023-04-03T12:24:34;10.20;63.50
5278;DHT22;2662;51.194;6.614;2023-04-03T12:27:04;10.20;58.30
5278;DHT22;2662;51.194;6.614;2023-04-03T12:29:39;10.30;60.10
5278;DHT22;2662;51.194;6.614;2023-04-03T12:32:17;10.40;61.30
5278;DHT22;2662;51.194;6.614;2023-04-03T12:35:05;10.60;62.40
5278;DHT22;2662;51.194;6.614;2023-04-03T12:37:59;10.70;60.40
5278;DHT22;2662;51.194;6.614;2023-04-03T12:40:37;10.70;63.20
5278;DHT22;2662;51.194;6.614;2023-04-03T12:43:28;10.50;66.00
5278;DHT22;2662;51.194;6.614;2023-04-03T12:46:02;10.20;65.10
5278;DHT22;2662;51.194;6.614;2023-04-03T12:48:31;10.30;66.80
5278;DHT22;2662;51.194;6.614;2023-04-03T12:51:00;10.20;65.70
5278;DHT22;2662;51.194;6.614;2023-04-03T12:53:28;10.30;67.00
5278;DHT22;2662;51.194;6.614;2023-04-03T12:56:19;10.00;66.00
5278;DHT22;2662;51.194;6.614;2023-04-03T12:58:47;10.10;65.50
5278;DHT22;2662;51.194;6.614;2023-04-03T13:01:16;10.10;66.00
5278;DHT22;2662;51.194;6.614;2023-04-03T13:03:45;10.10;68.00
5278;DHT22;2662;51.194;6.614;2023-04-03T13:06:17;10.00;66.30
5278;DHT22;2662;51.194;6.614;2023-04-03T13:08:56;10.20;67.80
5278;DHT22;2662;51.194;6.614;2023-04-03T13:11:25;10.30;67.40
5278;DHT22;2662;51.194;6.614;2023-04-03T13:14:00;10.40;66.90
5278;DHT22;2662;51.194;6.614;2023-04-03T13:16:27;10.10;65.20
5278;DHT22;2662;51.194;6.614;2023-04-03T13:18:55;10.10;68.00
5278;DHT22;2662;51.194;6.614;2023-04-03T13:21:25;10.30;67.50
5278;DHT22;2662;51.194;6.614;2023-04-03T13:23:54;10.20;65.50
5278;DHT22;2662;51.194;6.614;2023-04-03T13:26:25;10.00;67.00
5278;DHT22;2662;51.194;6.614;2023-04-03T13:28:53;10.20;70.20
5278;DHT22;2662;51.194;6.614;2023-04-03T13:31:24;10.30;65.30
5278;DHT22;2662;51.194;6.614;2023-04-03T13:34:05;10.30;66.10
5278;DHT22;2662;51.194;6.614;2023-04-03T13:36:36;10.30;66.30
5278;DHT22;2662;51.194;6.614;2023-04-03T13:39:05;10.30;66.50
5278;DHT22;2662;51.194;6.614;2023-04-03T13:41:34;10.30;65.70
5278;DHT22;2662;51.194;6.614;2023-04-03T13:44:29;10.30;66.80
5278;DHT22;2662;51.194;6.614;2023-04-03T13:46:57;10.30;66.70
5278;DHT22;2662;51.194;6.614;2023-04-03T13:49:32;10.50;69.60
5278;DHT22;2662;51.194;6.614;2023-04-03T13:52:03;10.70;69.50
5278;DHT22;2662;51.194;6.614;2023-04-03T13:54:32;10.50;66.00
5278;DHT22;2662;51.194;6.614;2023-04-03T13:57:01;10.60;67.80
5278;DHT22;2662;51.194;6.614;2023-04-03T13:59:30;10.70;70.30
5278;DHT22;2662;51.194;6.614;2023-04-03T14:02:13;10.90;69.20
5278;DHT22;2662;51.194;6.614;2023-04-03T14:04:48;10.60;69.60
5278;DHT22;2662;51.194;6.614;2023-04-03T14:07:17;10.40;69.10
5278;DHT22;2662;51.194;6.614;2023-04-03T14:09:46;10.30;69.30
5278;DHT22;2662;51.194;6.614;2023-04-03T14:12:15;10.30;70.10
5278;DHT22;2662;51.194;6.614;2023-04-03T14:14:44;10.50;71.20
5278;DHT22;2662;51.194;6.614;2023-04-03T14:17:14;10.60;69.00
5278;DHT22;2662;51.194;6.614;2023-04-03T14:19:42;10.20;69.40
5278;DHT22;2662;51.194;6.614;2023-04-03T14:22:14;10.20;68.60
5278;DHT22;2662;51.194;6.614;2023-04-03T14:24:43;10.00;70.30
5278;DHT22;2662;51.194;6.614;2023-04-03T14:27:16;10.20;69.00
5278;DHT22;2662;51.194;6.614;2023-04-03T14:29:43;10.30;71.30
5278;DHT22;2662;51.194;6.614;2023-04-03T14:32:12;10.30;68.60
5278;DHT22;2662;51.194;6.614;2023-04-03T14:34:39;10.40;70.70
5278;DHT22;2662;51.194;6.614;2023-04-03T14:37:10;10.00;69.70
5278;DHT22;2662;51.194;6.614;2023-04-03T14:39:37;10.30;73.40
5278;DHT22;2662;51.194;6.614;2023-04-03T14:42:05;10.30;73.80
5278;DHT22;2662;51.194;6.614;2023-04-03T14:44:32;10.30;72.90
5278;DHT22;2662;51.194;6.614;2023-04-03T14:46:59;10.30;72.40
5278;DHT22;2662;51.194;6.614;2023-04-03T14:49:28;10.30;71.80
5278;DHT22;2662;51.194;6.614;2023-04-03T14:51:55;10.30;71.40
5278;DHT22;2662;51.194;6.614;2023-04-03T14:54:23;10.30;72.60
5278;DHT22;2662;51.194;6.614;2023-04-03T14:56:53;10.00;71.50
5278;DHT22;2662;51.194;6.614;2023-04-03T14:59:22;10.20;73.60
5278;DHT22;2662;51.194;6.614;2023-04-03T15:01:49;10.40;73.30
5278;DHT22;2662;51.194;6.614;2023-04-03T15:04:17;10.30;71.70
5278;DHT22;2662;51.194;6.614;2023-04-03T15:06:45;10.30;72.70
5278;DHT22;2662;51.194;6.614;2023-04-03T15:09:19;10.40;73.00
5278;DHT22;2662;51.194;6.614;2023-04-03T15:11:47;10.50;74.10
5278;DHT22;2662;51.194;6.614;2023-04-03T15:14:13;10.30;72.40
5278;DHT22;2662;51.194;6.614;2023-04-03T15:16:41;10.20;73.60
5278;DHT22;2662;51.194;6.614;2023-04-03T15:19:09;10.20;72.90
5278;DHT22;2662;51.194;6.614;2023-04-03T15:21:36;9.90;74.10
5278;DHT22;2662;51.194;6.614;2023-04-03T15:24:03;9.90;77.30
5278;DHT22;2662;51.194;6.614;2023-04-03T15:26:30;10.00;76.40
5278;DHT22;2662;51.194;6.614;2023-04-03T15:28:57;10.20;77.30
5278;DHT22;2662;51.194;6.614;2023-04-03T15:31:24;10.00;74.20
5278;DHT22;2662;51.194;6.614;2023-04-03T15:33:52;9.80;76.20
5278;DHT22;2662;51.194;6.614;2023-04-03T15:36:19;9.90;79.00
5278;DHT22;2662;51.194;6.614;2023-04-03T15:38:45;10.00;75.50
5278;DHT22;2662;51.194;6.614;2023-04-03T15:41:12;10.00;75.70
5278;DHT22;2662;51.194;6.614;2023-04-03T15:43:39;9.90;78.70
5278;DHT22;2662;51.194;6.614;2023-04-03T15:46:06;10.10;79.30
5278;DHT22;2662;51.194;6.614;2023-04-03T15:48:32;10.20;76.10
5278;DHT22;2662;51.194;6.614;2023-04-03T15:51:01;9.80;74.20
5278;DHT22;2662;51.194;6.614;2023-04-03T15:53:27;9.60;76.10
5278;DHT22;2662;51.194;6.614;2023-04-03T15:55:54;9.70;78.20
5278;DHT22;2662;51.194;6.614;2023-04-03T15:58:21;9.70;78.50
5278;DHT22;2662;51.194;6.614;2023-04-03T16:00:48;9.70;77.90
5278;DHT22;2662;51.194;6.614;2023-04-03T16:03:17;9.70;78.20
5278;DHT22;2662;51.194;6.614;2023-04-03T16:05:44;9.70;77.90
5278;DHT22;2662;51.194;6.614;2023-04-03T16:08:12;9.80;78.00
5278;DHT22;2662;51.194;6.614;2023-04-03T16:10:40;9.70;77.70
5278;DHT22;2662;51.194;6.614;2023-04-03T16:13:07;9.60;77.80
5278;DHT22;2662;51.194;6.614;2023-04-03T16:15:34;9.60;78.60
5278;DHT22;2662;51.194;6.614;2023-04-03T16:18:01;9.70;81.30
5278;DHT22;2662;51.194;6.614;2023-04-03T16:20:28;9.80;79.80
5278;DHT22;2662;51.194;6.614;2023-04-03T16:22:56;9.80;78.70
5278;DHT22;2662;51.194;6.614;2023-04-03T16:25:25;9.60;77.50
5278;DHT22;2662;51.194;6.614;2023-04-03T16:27:52;9.70;79.10
5278;DHT22;2662;51.194;6.614;2023-04-03T16:30:20;9.60;79.20
5278;DHT22;2662;51.194;6.614;2023-04-03T16:32:46;9.60;80.20
5278;DHT22;2662;51.194;6.614;2023-04-03T16:35:13;9.50;79.50
5278;DHT22;2662;51.194;6.614;2023-04-03T16:37:40;9.40;79.80